Time;durP1;ratioP1;P1;durP2;ratioP2;P2;SDS_P1;SDS_P2;PMS_P1;PMS_P2;Temp;Humidity;BMP_temperature;BMP_pressure;BME280_temperature;BME280_humidity;BME280_pressure;Samples;Min_cycle;Max_cycle;Signal;HPM_P1;HPM_P2
2021/12/14 00:00:26;;;;;;;0.20;0.20;;;;;;;;;;4183440;28;20049;-42
2021/12/14 00:02:28;;;;;;;0.20;0.20;;;;;;;;;;4183685;28;20052;-42
2021/12/14 00:04:32;;;;;;;0.20;0.20;;;;;;;;;;4183397;28;20075;-43
2021/12/14 00:06:34;;;;;;;0.22;0.20;;;;;;;;;;4183659;28;20057;-44
2021/12/14 00:08:47;;;;;;;0.20;0.20;;;;;;;;;;4182990;28;20110;-42
2021/12/14 00:11:12;;;;;;;0.30;0.30;;;;;;;;;;4183382;28;20094;-42
2021/12/14 00:13:25;;;;;;;0.55;0.20;;;;;;;;;;4183240;28;20110;-43
2021/12/14 00:15:26;;;;;;;0.50;0.20;;;;;;;;;;4183495;28;20079;-42
2021/12/14 00:17:30;;;;;;;0.20;0.20;;;;;;;;;;4183184;28;20053;-42
2021/12/14 00:19:31;;;;;;;0.30;0.20;;;;;;;;;;4183114;28;20049;-42
2021/12/14 00:21:32;;;;;;;0.38;0.20;;;;;;;;;;4183103;28;20053;-42
2021/12/14 00:25:54;;;;;;;0.22;0.20;;;;;;;;;;4183127;28;20052;-42
2021/12/14 00:27:57;;;;;;;0.15;0.10;;;;;;;;;;4183002;28;20057;-42
2021/12/14 00:29:59;;;;;;;0.20;0.20;;;;;;;;;;4183311;28;20053;-43
2021/12/14 00:32:03;;;;;;;0.28;0.20;;;;;;;;;;4183042;28;20107;-42
2021/12/14 00:34:05;;;;;;;0.10;0.10;;;;;;;;;;4165143;28;20103;-43
2021/12/14 00:36:08;;;;;;;0.10;0.10;;;;;;;;;;4198455;28;20045;-42
2021/12/14 00:38:10;;;;;;;0.50;0.30;;;;;;;;;;4181163;28;20091;-42
2021/12/14 00:40:32;;;;;;;0.10;0.10;;;;;;;;;;4182877;28;20045;-43
2021/12/14 00:42:34;;;;;;;0.20;0.10;;;;;;;;;;4181454;28;20074;-42
2021/12/14 00:44:35;;;;;;;0.20;0.20;;;;;;;;;;4181832;28;20052;-43
2021/12/14 00:46:37;;;;;;;0.30;0.22;;;;;;;;;;4182915;28;20045;-43
2021/12/14 00:48:38;;;;;;;0.10;0.10;;;;;;;;;;4182743;28;20389;-42
2021/12/14 00:50:42;;;;;;;0.10;0.10;;;;;;;;;;4181500;28;20421;-42
2021/12/14 00:52:43;;;;;;;0.10;0.10;;;;;;;;;;4180837;28;20057;-43
2021/12/14 00:54:44;;;;;;;0.10;0.10;;;;;;;;;;4183011;28;20048;-42
2021/12/14 00:56:47;;;;;;;0.28;0.28;;;;;;;;;;4182548;28;20386;-43
2021/12/14 00:58:48;;;;;;;0.10;0.10;;;;;;;;;;4182684;28;20048;-42
2021/12/14 01:00:59;;;;;;;0.28;0.28;;;;;;;;;;4164973;28;20046;-43
2021/12/14 01:03:00;;;;;;;0.17;0.17;;;;;;;;;;4181364;28;20045;-42
2021/12/14 01:05:04;;;;;;;0.32;0.25;;;;;;;;;;4182508;28;20053;-43
2021/12/14 01:07:06;;;;;;;0.20;0.17;;;;;;;;;;4180863;28;20112;-44
2021/12/14 01:09:07;;;;;;;0.15;0.10;;;;;;;;;;4181157;28;20449;-43
2021/12/14 01:11:11;;;;;;;0.25;0.25;;;;;;;;;;4182173;28;20057;-42
2021/12/14 01:13:12;;;;;;;0.75;0.30;;;;;;;;;;4182329;28;20059;-42
2021/12/14 01:15:31;;;;;;;0.08;0.08;;;;;;;;;;4182650;28;20178;-43
2021/12/14 01:18:01;;;;;;;0.10;0.10;;;;;;;;;;4182160;28;20044;-42
2021/12/14 01:20:02;;;;;;;0.50;0.32;;;;;;;;;;4181523;28;20052;-42
2021/12/14 01:24:24;;;;;;;0.50;0.25;;;;;;;;;;4182410;28;20052;-42
2021/12/14 01:26:26;;;;;;;0.10;0.10;;;;;;;;;;4180919;28;20049;-43
2021/12/14 01:28:28;;;;;;;0.30;0.20;;;;;;;;;;4182156;28;20188;-42
2021/12/14 01:30:29;;;;;;;0.55;0.20;;;;;;;;;;4182449;28;20106;-43
2021/12/14 01:32:34;;;;;;;0.65;0.20;;;;;;;;;;4180533;28;20049;-42
2021/12/14 01:34:36;;;;;;;0.10;0.10;;;;;;;;;;4182075;28;20048;-43
2021/12/14 01:36:43;;;;;;;0.15;0.10;;;;;;;;;;4180566;28;20513;-42
2021/12/14 01:38:58;;;;;;;0.10;0.10;;;;;;;;;;4180958;28;20091;-42
2021/12/14 01:41:03;;;;;;;0.15;0.15;;;;;;;;;;4180813;28;20044;-42
2021/12/14 01:43:09;;;;;;;0.40;0.10;;;;;;;;;;4180672;28;20114;-43
2021/12/14 01:45:14;;;;;;;0.30;0.30;;;;;;;;;;4180648;28;20431;-42
2021/12/14 01:47:18;;;;;;;0.10;0.10;;;;;;;;;;4180422;28;20370;-42
2021/12/14 01:49:29;;;;;;;0.20;0.10;;;;;;;;;;4181729;28;20045;-43
2021/12/14 01:51:50;;;;;;;0.65;0.10;;;;;;;;;;4181087;28;20057;-42
2021/12/14 01:53:55;;;;;;;0.35;0.20;;;;;;;;;;4197070;28;20443;-42
2021/12/14 01:55:59;;;;;;;0.20;0.20;;;;;;;;;;4181713;28;20485;-42
2021/12/14 01:58:01;;;;;;;0.20;0.20;;;;;;;;;;4197116;28;20063;-42
2021/12/14 02:00:05;;;;;;;0.40;0.10;;;;;;;;;;4180362;28;20380;-42
2021/12/14 02:02:30;;;;;;;0.20;0.20;;;;;;;;;;4181646;28;20049;-42
2021/12/14 02:04:31;;;;;;;0.40;0.20;;;;;;;;;;4196887;28;20048;-42
2021/12/14 02:06:33;;;;;;;0.10;0.10;;;;;;;;;;4147655;28;20054;-43
2021/12/14 02:08:35;;;;;;;0.28;0.20;;;;;;;;;;4181218;28;20049;-42
2021/12/14 02:10:37;;;;;;;0.15;0.15;;;;;;;;;;4180230;28;20045;-42
2021/12/14 02:12:40;;;;;;;0.10;0.10;;;;;;;;;;4196533;28;20048;-43
2021/12/14 02:14:41;;;;;;;0.30;0.20;;;;;;;;;;4196929;28;20055;-43
2021/12/14 02:16:43;;;;;;;0.30;0.20;;;;;;;;;;4179987;28;20045;-42
2021/12/14 02:18:45;;;;;;;0.47;0.10;;;;;;;;;;4181427;28;20056;-43
2021/12/14 02:20:48;;;;;;;0.68;0.10;;;;;;;;;;4181417;28;20489;-42
2021/12/14 02:22:49;;;;;;;0.20;0.20;;;;;;;;;;4195314;28;20353;-42
2021/12/14 02:24:51;;;;;;;0.10;0.10;;;;;;;;;;4180312;28;20108;-43
2021/12/14 02:26:52;;;;;;;0.25;0.20;;;;;;;;;;4196608;28;20056;-42
2021/12/14 02:28:54;;;;;;;0.20;0.20;;;;;;;;;;4179935;28;20060;-42
2021/12/14 02:30:56;;;;;;;0.25;0.20;;;;;;;;;;4180163;28;20080;-42
2021/12/14 02:32:58;;;;;;;0.40;0.20;;;;;;;;;;4180946;28;20434;-42
2021/12/14 02:35:03;;;;;;;0.10;0.10;;;;;;;;;;4181194;28;20052;-42
2021/12/14 02:37:04;;;;;;;0.13;0.08;;;;;;;;;;4180570;28;20059;-43
2021/12/14 02:39:10;;;;;;;0.43;0.20;;;;;;;;;;4181026;28;20049;-42
2021/12/14 02:41:13;;;;;;;0.30;0.22;;;;;;;;;;4181189;28;20049;-43
2021/12/14 02:43:35;;;;;;;0.20;0.20;;;;;;;;;;4210999;28;20142;-42
2021/12/14 02:45:36;;;;;;;0.20;0.20;;;;;;;;;;4196248;28;20045;-42
2021/12/14 02:47:37;;;;;;;0.20;0.20;;;;;;;;;;4196196;28;20041;-43
2021/12/14 02:49:39;;;;;;;0.20;0.10;;;;;;;;;;4196308;28;20377;-42
2021/12/14 02:51:42;;;;;;;0.10;0.10;;;;;;;;;;4195581;28;20048;-43
2021/12/14 02:53:45;;;;;;;0.10;0.10;;;;;;;;;;4196224;28;20118;-42
2021/12/14 02:55:46;;;;;;;0.20;0.10;;;;;;;;;;4197364;28;20048;-43
2021/12/14 02:57:49;;;;;;;0.10;0.10;;;;;;;;;;4197304;28;20476;-42
2021/12/14 02:59:51;;;;;;;0.10;0.10;;;;;;;;;;4195916;28;20044;-43
2021/12/14 03:01:54;;;;;;;0.47;0.10;;;;;;;;;;4196225;28;20056;-43
2021/12/14 03:03:59;;;;;;;0.20;0.15;;;;;;;;;;4197618;28;20048;-43
2021/12/14 03:06:01;;;;;;;0.10;0.10;;;;;;;;;;4196104;28;20405;-42
2021/12/14 03:08:05;;;;;;;0.10;0.10;;;;;;;;;;4195701;28;20052;-42
2021/12/14 03:10:22;;;;;;;0.10;0.10;;;;;;;;;;4197323;28;20130;-42
2021/12/14 03:12:23;;;;;;;0.20;0.17;;;;;;;;;;4196052;28;20135;-42
2021/12/14 03:14:24;;;;;;;0.10;0.10;;;;;;;;;;4197158;28;20049;-42
2021/12/14 03:16:27;;;;;;;0.40;0.20;;;;;;;;;;4197259;28;20110;-43
2021/12/14 03:18:30;;;;;;;0.10;0.10;;;;;;;;;;4197089;28;20056;-42
2021/12/14 03:20:33;;;;;;;0.10;0.10;;;;;;;;;;4196162;28;20056;-42
2021/12/14 03:22:38;;;;;;;0.10;0.10;;;;;;;;;;4196488;28;20493;-43
2021/12/14 03:24:39;;;;;;;0.20;0.20;;;;;;;;;;4195811;28;20409;-43
2021/12/14 03:26:42;;;;;;;0.13;0.10;;;;;;;;;;4197275;28;20063;-43
2021/12/14 03:28:47;;;;;;;0.30;0.20;;;;;;;;;;4179215;28;20170;-42
2021/12/14 03:30:54;;;;;;;0.20;0.20;;;;;;;;;;4195871;28;20582;-43
2021/12/14 03:32:59;;;;;;;0.17;0.10;;;;;;;;;;4195719;28;20052;-43
2021/12/14 03:35:01;;;;;;;0.32;0.25;;;;;;;;;;4198913;28;20079;-43
2021/12/14 03:37:02;;;;;;;0.22;0.15;;;;;;;;;;4200033;28;20182;-43
2021/12/14 03:39:15;;;;;;;0.10;0.10;;;;;;;;;;4200388;28;20052;-44
2021/12/14 03:41:19;;;;;;;0.20;0.10;;;;;;;;;;4199482;28;20049;-42
2021/12/14 03:43:20;;;;;;;0.15;0.10;;;;;;;;;;4198952;28;20075;-44
2021/12/14 03:45:23;;;;;;;0.10;0.10;;;;;;;;;;4199066;28;20086;-42
2021/12/14 03:47:30;;;;;;;0.20;0.20;;;;;;;;;;4199106;28;20197;-42
2021/12/14 03:49:33;;;;;;;0.05;0.05;;;;;;;;;;4199325;28;20048;-43
2021/12/14 03:51:35;;;;;;;0.10;0.10;;;;;;;;;;4198905;28;20394;-43
2021/12/14 03:53:39;;;;;;;0.10;0.10;;;;;;;;;;4198873;28;20048;-43
2021/12/14 03:55:43;;;;;;;0.10;0.10;;;;;;;;;;4198900;28;20485;-43
2021/12/14 03:57:45;;;;;;;0.43;0.20;;;;;;;;;;4198674;28;20114;-43
2021/12/14 03:59:46;;;;;;;0.45;0.10;;;;;;;;;;4182269;28;20045;-43
2021/12/14 04:01:49;;;;;;;0.17;0.17;;;;;;;;;;4198745;28;20053;-42
2021/12/14 04:03:53;;;;;;;0.15;0.15;;;;;;;;;;4198775;28;20101;-42
2021/12/14 04:05:59;;;;;;;0.10;0.10;;;;;;;;;;4199170;28;20124;-42
2021/12/14 04:08:00;;;;;;;0.20;0.17;;;;;;;;;;4198447;28;20090;-42
2021/12/14 04:10:02;;;;;;;0.10;0.10;;;;;;;;;;4198704;28;20100;-42
2021/12/14 04:12:09;;;;;;;0.10;0.10;;;;;;;;;;4199850;28;20056;-42
2021/12/14 04:14:11;;;;;;;0.52;0.15;;;;;;;;;;4198616;28;20052;-43
2021/12/14 04:16:15;;;;;;;0.10;0.10;;;;;;;;;;4198666;28;20497;-43
2021/12/14 04:18:16;;;;;;;0.20;0.20;;;;;;;;;;4199632;28;20044;-42
2021/12/14 04:20:20;;;;;;;0.10;0.10;;;;;;;;;;4198744;28;20048;-42
2021/12/14 04:22:23;;;;;;;0.25;0.20;;;;;;;;;;4197761;28;20122;-43
2021/12/14 04:24:26;;;;;;;0.30;0.17;;;;;;;;;;4198407;28;20425;-43
2021/12/14 04:26:27;;;;;;;0.10;0.10;;;;;;;;;;4198268;28;20441;-42
2021/12/14 04:28:32;;;;;;;0.20;0.13;;;;;;;;;;4198255;28;20102;-41
2021/12/14 04:30:33;;;;;;;0.10;0.10;;;;;;;;;;4198336;28;20508;-43
2021/12/14 04:32:37;;;;;;;0.00;0.00;;;;;;;;;;4198398;28;20045;-42
2021/12/14 04:34:39;;;;;;;0.10;0.10;;;;;;;;;;4198360;28;20060;-43
2021/12/14 04:36:43;;;;;;;0.10;0.10;;;;;;;;;;4181083;28;20400;-43
2021/12/14 04:38:51;;;;;;;0.20;0.10;;;;;;;;;;4215186;28;20051;-42
2021/12/14 04:52:52;;;;;;;0.10;0.10;;;;;;;;;;4197471;28;20056;-43
2021/12/14 04:54:55;;;;;;;0.10;0.10;;;;;;;;;;4197957;28;20480;-43
2021/12/14 04:56:58;;;;;;;0.20;0.15;;;;;;;;;;4198081;28;20049;-43
2021/12/14 04:59:04;;;;;;;0.45;0.20;;;;;;;;;;4197917;28;20048;-43
2021/12/14 05:01:07;;;;;;;0.00;0.00;;;;;;;;;;4198037;28;20049;-42
2021/12/14 05:03:14;;;;;;;0.22;0.20;;;;;;;;;;4197712;28;20385;-43
2021/12/14 05:05:40;;;;;;;0.10;0.10;;;;;;;;;;4198170;28;20048;-42
2021/12/14 05:09:19;;;;;;;0.10;0.10;;;;;;;;;;4214251;28;20048;-43
2021/12/14 05:10:15;;;;;;;0.20;0.15;;;;;;;;;;4197594;28;20467;-42
2021/12/14 05:12:18;;;;;;;0.45;0.10;;;;;;;;;;4198748;28;20049;-42
2021/12/14 05:14:38;;;;;;;0.20;0.20;;;;;;;;;;4198861;28;20481;-43
2021/12/14 05:16:40;;;;;;;0.13;0.13;;;;;;;;;;4197235;28;20082;-42
2021/12/14 05:18:46;;;;;;;0.20;0.10;;;;;;;;;;4197532;28;20053;-42
2021/12/14 05:20:49;;;;;;;0.10;0.10;;;;;;;;;;4197457;28;20049;-43
2021/12/14 05:22:54;;;;;;;0.25;0.22;;;;;;;;;;4196724;28;20478;-42
2021/12/14 05:25:00;;;;;;;0.52;0.20;;;;;;;;;;4197258;28;20049;-42
2021/12/14 05:27:04;;;;;;;0.20;0.15;;;;;;;;;;4197293;28;20048;-42
2021/12/14 05:29:10;;;;;;;0.30;0.20;;;;;;;;;;4197633;28;20057;-43
2021/12/14 05:31:12;;;;;;;0.10;0.10;;;;;;;;;;4197244;28;20429;-43
2021/12/14 05:33:20;;;;;;;0.10;0.10;;;;;;;;;;4197395;28;20059;-42
2021/12/14 05:35:22;;;;;;;0.10;0.10;;;;;;;;;;4197331;28;20045;-43
2021/12/14 05:37:30;;;;;;;0.10;0.10;;;;;;;;;;4196677;28;20492;-42
2021/12/14 05:44:18;;;;;;;1.38;0.10;;;;;;;;;;4197161;28;20522;-42
2021/12/14 05:46:21;;;;;;;0.20;0.20;;;;;;;;;;4197052;28;20398;-42
2021/12/14 05:48:59;;;;;;;0.15;0.15;;;;;;;;;;4196914;28;20094;-42
2021/12/14 05:51:03;;;;;;;0.20;0.20;;;;;;;;;;4196879;28;20048;-42
2021/12/14 05:53:04;;;;;;;0.63;0.30;;;;;;;;;;4196290;28;20105;-43
2021/12/14 05:55:06;;;;;;;0.10;0.10;;;;;;;;;;4196919;28;20075;-43
2021/12/14 05:57:11;;;;;;;0.47;0.20;;;;;;;;;;4195876;28;20048;-43
2021/12/14 05:59:16;;;;;;;0.22;0.20;;;;;;;;;;4198500;28;20048;-43
2021/12/14 06:01:20;;;;;;;0.32;0.32;;;;;;;;;;4196879;28;20149;-42
2021/12/14 06:03:29;;;;;;;0.13;0.10;;;;;;;;;;4196962;28;20106;-42
2021/12/14 06:05:30;;;;;;;0.20;0.20;;;;;;;;;;4198121;28;20048;-43
2021/12/14 06:07:32;;;;;;;0.20;0.10;;;;;;;;;;4196400;28;20078;-42
2021/12/14 06:09:37;;;;;;;0.10;0.10;;;;;;;;;;4196621;28;20106;-42
2021/12/14 06:11:46;;;;;;;0.43;0.15;;;;;;;;;;4196765;28;20135;-43
2021/12/14 06:13:47;;;;;;;1.10;0.20;;;;;;;;;;4198234;28;20101;-42
2021/12/14 06:15:49;;;;;;;0.52;0.40;;;;;;;;;;4196552;28;20053;-43
2021/12/14 06:17:54;;;;;;;0.63;0.20;;;;;;;;;;4196726;28;20044;-42
2021/12/14 06:20:20;;;;;;;0.20;0.20;;;;;;;;;;4197720;28;20048;-42
2021/12/14 06:22:23;;;;;;;0.10;0.10;;;;;;;;;;4195732;28;20090;-42
2021/12/14 06:24:25;;;;;;;0.35;0.22;;;;;;;;;;4196423;28;20059;-43
2021/12/14 06:26:33;;;;;;;0.25;0.20;;;;;;;;;;4196576;28;20094;-42
2021/12/14 06:28:34;;;;;;;0.52;0.20;;;;;;;;;;4210436;28;20384;-43
2021/12/14 06:30:42;;;;;;;0.85;0.20;;;;;;;;;;4197873;28;20060;-42
2021/12/14 06:33:03;;;;;;;0.17;0.10;;;;;;;;;;4196169;28;20052;-42
2021/12/14 06:35:07;;;;;;;0.10;0.10;;;;;;;;;;4191954;28;20061;-42
2021/12/14 06:37:42;;;;;;;0.20;0.20;;;;;;;;;;4193763;28;20045;-43
2021/12/14 06:40:02;;;;;;;0.52;0.40;;;;;;;;;;4195770;28;20056;-43
2021/12/14 06:42:04;;;;;;;0.38;0.22;;;;;;;;;;4191762;28;20052;-42
2021/12/14 06:44:06;;;;;;;0.43;0.30;;;;;;;;;;4195048;28;20044;-42
2021/12/14 06:46:14;;;;;;;0.82;0.25;;;;;;;;;;4195020;28;20062;-42
2021/12/14 06:48:20;;;;;;;0.30;0.20;;;;;;;;;;4191577;28;20476;-43
2021/12/14 06:50:24;;;;;;;0.40;0.40;;;;;;;;;;4208604;28;20044;-42
2021/12/14 06:52:26;;;;;;;0.20;0.20;;;;;;;;;;4190812;28;20045;-43
2021/12/14 06:54:41;;;;;;;2.30;0.25;;;;;;;;;;4184854;28;20044;-42
2021/12/14 06:57:02;;;;;;;0.30;0.30;;;;;;;;;;4192339;28;20071;-43
2021/12/14 06:59:29;;;;;;;0.40;0.20;;;;;;;;;;4187966;28;20052;-43
2021/12/14 07:01:46;;;;;;;0.20;0.20;;;;;;;;;;4191783;28;20443;-43
2021/12/14 07:03:51;;;;;;;0.57;0.20;;;;;;;;;;4188312;28;20405;-43
2021/12/14 07:05:53;;;;;;;0.20;0.20;;;;;;;;;;4188557;28;20056;-42
2021/12/14 07:07:58;;;;;;;0.55;0.40;;;;;;;;;;4191094;28;20057;-43
2021/12/14 07:10:00;;;;;;;0.60;0.30;;;;;;;;;;4174369;28;20479;-43
2021/12/14 07:12:13;;;;;;;0.63;0.28;;;;;;;;;;4192971;28;20404;-43
2021/12/14 07:14:27;;;;;;;0.50;0.20;;;;;;;;;;4186381;28;20137;-43
2021/12/14 07:16:33;;;;;;;0.30;0.20;;;;;;;;;;4185881;28;20052;-43
2021/12/14 07:18:35;;;;;;;0.65;0.20;;;;;;;;;;4194586;28;20385;-42
2021/12/14 07:20:44;;;;;;;0.43;0.30;;;;;;;;;;4187152;28;20041;-43
2021/12/14 07:23:06;;;;;;;0.43;0.32;;;;;;;;;;4188188;28;20106;-43
2021/12/14 07:25:12;;;;;;;0.40;0.10;;;;;;;;;;4181427;28;20405;-43
2021/12/14 07:27:18;;;;;;;0.17;0.17;;;;;;;;;;4188023;28;20052;-42
2021/12/14 07:29:22;;;;;;;0.20;0.20;;;;;;;;;;4189542;28;20390;-43
2021/12/14 07:31:23;;;;;;;0.10;0.10;;;;;;;;;;4188841;28;20488;-43
2021/12/14 07:33:28;;;;;;;0.10;0.10;;;;;;;;;;4190811;28;20070;-42
2021/12/14 07:35:32;;;;;;;0.60;0.20;;;;;;;;;;4185549;28;20609;-43
2021/12/14 07:37:35;;;;;;;0.28;0.20;;;;;;;;;;4183731;28;20054;-43
2021/12/14 07:39:36;;;;;;;0.40;0.22;;;;;;;;;;4186155;28;20102;-42
2021/12/14 07:41:41;;;;;;;0.68;0.20;;;;;;;;;;4192343;28;20048;-42
2021/12/14 07:43:45;;;;;;;0.20;0.20;;;;;;;;;;4190896;28;20045;-42
2021/12/14 07:45:47;;;;;;;0.60;0.30;;;;;;;;;;4186393;28;20150;-43
2021/12/14 07:47:50;;;;;;;0.28;0.20;;;;;;;;;;4187058;28;20558;-42
2021/12/14 07:49:55;;;;;;;1.10;0.30;;;;;;;;;;4189508;28;20056;-43
2021/12/14 07:52:05;;;;;;;0.68;0.25;;;;;;;;;;4188256;28;20390;-43
2021/12/14 07:54:08;;;;;;;0.35;0.17;;;;;;;;;;4194479;28;20481;-42
2021/12/14 07:56:20;;;;;;;0.15;0.13;;;;;;;;;;4188540;28;20090;-43
2021/12/14 07:58:29;;;;;;;2.08;0.17;;;;;;;;;;4182076;28;20071;-43
2021/12/14 08:00:33;;;;;;;1.45;0.30;;;;;;;;;;4192871;28;20052;-42
2021/12/14 08:02:37;;;;;;;0.45;0.43;;;;;;;;;;4187948;28;20108;-43
2021/12/14 08:04:40;;;;;;;0.57;0.20;;;;;;;;;;4187438;28;20052;-42
2021/12/14 08:06:47;;;;;;;1.70;0.20;;;;;;;;;;4183728;28;20433;-42
2021/12/14 08:08:54;;;;;;;0.35;0.20;;;;;;;;;;4188364;28;20513;-42
2021/12/14 08:13:22;;;;;;;1.52;0.40;;;;;;;;;;4161638;28;20152;-43
2021/12/14 08:15:23;;;;;;;1.10;0.20;;;;;;;;;;4193676;28;20083;-43
2021/12/14 08:17:24;;;;;;;1.02;0.30;;;;;;;;;;4188347;28;20052;-43
2021/12/14 08:19:30;;;;;;;0.10;0.10;;;;;;;;;;4187733;28;20056;-42
2021/12/14 08:21:31;;;;;;;1.85;0.40;;;;;;;;;;4190946;28;20137;-43
2021/12/14 08:23:32;;;;;;;4.07;0.30;;;;;;;;;;4193160;28;20080;-42
2021/12/14 08:25:33;;;;;;;0.65;0.22;;;;;;;;;;4194284;28;20083;-43
2021/12/14 08:27:34;;;;;;;0.50;0.30;;;;;;;;;;4191817;28;20056;-42
2021/12/14 08:29:36;;;;;;;0.38;0.30;;;;;;;;;;4199289;28;20263;-43
2021/12/14 08:31:45;;;;;;;0.95;0.10;;;;;;;;;;4199866;28;20062;-43
2021/12/14 08:34:19;;;;;;;1.33;0.43;;;;;;;;;;4184846;28;20102;-42
2021/12/14 08:36:20;;;;;;;0.77;0.25;;;;;;;;;;4133471;28;20052;-42
2021/12/14 08:38:21;;;;;;;0.17;0.17;;;;;;;;;;4191450;28;20059;-43
2021/12/14 08:40:24;;;;;;;0.52;0.30;;;;;;;;;;4195296;28;20397;-42
2021/12/14 08:42:35;;;;;;;0.70;0.30;;;;;;;;;;4194288;28;20489;-42
2021/12/14 08:44:39;;;;;;;0.88;0.40;;;;;;;;;;4193428;28;20045;-42
2021/12/14 08:46:40;;;;;;;1.75;0.10;;;;;;;;;;4190629;28;20044;-42
2021/12/14 08:48:58;;;;;;;0.40;0.20;;;;;;;;;;4195244;28;20037;-42
2021/12/14 08:51:02;;;;;;;1.13;0.30;;;;;;;;;;4191495;28;20098;-43
2021/12/14 08:53:06;;;;;;;0.45;0.20;;;;;;;;;;4169607;28;20068;-43
2021/12/14 08:55:08;;;;;;;1.25;0.28;;;;;;;;;;4192619;28;20674;-43
2021/12/14 08:57:14;;;;;;;0.38;0.10;;;;;;;;;;4184130;28;20055;-43
2021/12/14 08:59:15;;;;;;;0.60;0.30;;;;;;;;;;4184447;28;20090;-43
2021/12/14 09:01:19;;;;;;;1.02;0.30;;;;;;;;;;4189475;28;20060;-42
2021/12/14 09:03:31;;;;;;;0.85;0.30;;;;;;;;;;4186697;28;20060;-43
2021/12/14 09:05:36;;;;;;;0.38;0.20;;;;;;;;;;4190305;28;20049;-43
2021/12/14 09:07:37;;;;;;;1.13;0.45;;;;;;;;;;4190559;28;20071;-43
2021/12/14 09:09:39;;;;;;;0.80;0.50;;;;;;;;;;4189222;28;20156;-43
2021/12/14 09:11:41;;;;;;;1.15;0.25;;;;;;;;;;4195106;28;20094;-42
2021/12/14 09:13:43;;;;;;;0.45;0.20;;;;;;;;;;4193690;28;20106;-43
2021/12/14 09:15:50;;;;;;;0.73;0.38;;;;;;;;;;4189510;28;20350;-42
2021/12/14 09:17:52;;;;;;;0.55;0.30;;;;;;;;;;4189812;28;20437;-43
2021/12/14 09:19:56;;;;;;;1.67;0.30;;;;;;;;;;4186233;28;20090;-41
2021/12/14 09:21:59;;;;;;;1.23;0.38;;;;;;;;;;4188656;28;20061;-43
2021/12/14 09:24:02;;;;;;;0.60;0.30;;;;;;;;;;4190717;28;20057;-42
2021/12/14 09:26:06;;;;;;;0.40;0.20;;;;;;;;;;4191038;28;20110;-43
2021/12/14 09:28:08;;;;;;;2.10;0.30;;;;;;;;;;4194568;28;20503;-42
2021/12/14 09:30:11;;;;;;;0.40;0.30;;;;;;;;;;4187229;28;20447;-43
2021/12/14 09:32:14;;;;;;;1.15;0.35;;;;;;;;;;4190955;28;20546;-43
2021/12/14 09:34:17;;;;;;;1.08;0.20;;;;;;;;;;4187308;28;20130;-43
2021/12/14 09:36:19;;;;;;;0.65;0.30;;;;;;;;;;4189945;28;20067;-43
2021/12/14 09:38:25;;;;;;;0.30;0.22;;;;;;;;;;4191873;28;20818;-43
2021/12/14 09:40:29;;;;;;;2.33;0.20;;;;;;;;;;4188434;28;20162;-43
2021/12/14 09:42:32;;;;;;;0.73;0.30;;;;;;;;;;4187165;28;20070;-43
2021/12/14 09:44:34;;;;;;;0.57;0.35;;;;;;;;;;4193116;28;20052;-42
2021/12/14 09:46:36;;;;;;;0.57;0.30;;;;;;;;;;4189576;28;20109;-43
2021/12/14 09:48:39;;;;;;;1.65;0.40;;;;;;;;;;4188599;28;20056;-42
2021/12/14 09:50:42;;;;;;;2.00;0.40;;;;;;;;;;4185719;28;20082;-42
2021/12/14 09:52:44;;;;;;;0.50;0.20;;;;;;;;;;4189244;28;20060;-43
2021/12/14 09:54:45;;;;;;;0.50;0.20;;;;;;;;;;4190861;28;20064;-43
2021/12/14 09:56:51;;;;;;;0.50;0.30;;;;;;;;;;4189584;28;20056;-43
2021/12/14 09:58:58;;;;;;;2.10;0.30;;;;;;;;;;4184158;28;20421;-43
2021/12/14 10:01:03;;;;;;;0.38;0.20;;;;;;;;;;4185563;28;20574;-43
2021/12/14 10:03:06;;;;;;;0.57;0.30;;;;;;;;;;4182415;28;20145;-43
2021/12/14 10:05:14;;;;;;;0.43;0.30;;;;;;;;;;4189067;28;20092;-43
2021/12/14 10:07:16;;;;;;;0.55;0.25;;;;;;;;;;4188926;28;20484;-45
2021/12/14 10:09:20;;;;;;;0.77;0.40;;;;;;;;;;4194328;28;20052;-44
2021/12/14 10:11:27;;;;;;;1.67;0.35;;;;;;;;;;4184289;28;20079;-43
2021/12/14 10:13:29;;;;;;;0.30;0.20;;;;;;;;;;4184746;28;20416;-43
2021/12/14 10:15:33;;;;;;;1.27;0.28;;;;;;;;;;4189022;28;20389;-43
2021/12/14 10:17:34;;;;;;;0.60;0.20;;;;;;;;;;4184148;28;20055;-43
2021/12/14 10:19:37;;;;;;;0.30;0.20;;;;;;;;;;4193395;28;20162;-42
2021/12/14 10:21:46;;;;;;;1.05;0.30;;;;;;;;;;4186859;28;20044;-42
2021/12/14 10:23:48;;;;;;;1.17;0.30;;;;;;;;;;4184325;28;20060;-43
2021/12/14 10:25:51;;;;;;;0.50;0.20;;;;;;;;;;4183322;28;20457;-44
2021/12/14 10:27:53;;;;;;;0.93;0.40;;;;;;;;;;4186573;28;20593;-44
2021/12/14 10:29:56;;;;;;;0.63;0.40;;;;;;;;;;4183823;28;20053;-44
2021/12/14 10:32:03;;;;;;;0.43;0.20;;;;;;;;;;4184297;28;20048;-43
2021/12/14 10:34:08;;;;;;;0.22;0.15;;;;;;;;;;4186966;28;20672;-43
2021/12/14 10:36:23;;;;;;;1.13;0.30;;;;;;;;;;4184856;28;20045;-44
2021/12/14 10:38:30;;;;;;;0.77;0.50;;;;;;;;;;4186881;28;20056;-44
2021/12/14 10:43:12;;;;;;;0.82;0.45;;;;;;;;;;4187400;28;20044;-43
2021/12/14 10:45:13;;;;;;;0.90;0.30;;;;;;;;;;4189557;28;20052;-44
2021/12/14 10:47:15;;;;;;;0.50;0.40;;;;;;;;;;4190119;28;20040;-44
2021/12/14 10:49:17;;;;;;;1.55;0.50;;;;;;;;;;4191294;28;20141;-43
2021/12/14 10:51:20;;;;;;;0.75;0.40;;;;;;;;;;4185824;28;20106;-43
2021/12/14 10:53:21;;;;;;;1.23;0.43;;;;;;;;;;4181832;28;20049;-42
2021/12/14 10:55:28;;;;;;;2.15;0.40;;;;;;;;;;4182398;28;20057;-42
2021/12/14 10:57:31;;;;;;;2.28;0.40;;;;;;;;;;4188265;28;20052;-43
2021/12/14 10:59:34;;;;;;;0.47;0.30;;;;;;;;;;4177331;28;20119;-43
2021/12/14 11:01:35;;;;;;;1.52;0.47;;;;;;;;;;4186483;28;20063;-44
2021/12/14 11:03:42;;;;;;;3.90;0.52;;;;;;;;;;4187144;28;20512;-43
2021/12/14 11:05:46;;;;;;;1.10;0.43;;;;;;;;;;4183975;28;20129;-44
2021/12/14 11:07:48;;;;;;;0.75;0.35;;;;;;;;;;4185105;28;20488;-42
2021/12/14 11:09:55;;;;;;;0.75;0.45;;;;;;;;;;4205788;28;20078;-44
2021/12/14 11:11:59;;;;;;;0.70;0.50;;;;;;;;;;4187405;28;20056;-44
2021/12/14 11:14:02;;;;;;;1.52;0.40;;;;;;;;;;4190498;28;20466;-43
2021/12/14 11:16:06;;;;;;;0.82;0.70;;;;;;;;;;4190747;28;20093;-44
2021/12/14 11:18:11;;;;;;;0.80;0.40;;;;;;;;;;4186340;28;20044;-45
2021/12/14 11:20:15;;;;;;;0.70;0.40;;;;;;;;;;4182999;28;20567;-43
2021/12/14 11:22:18;;;;;;;2.05;0.57;;;;;;;;;;4184659;28;20061;-43
2021/12/14 11:24:31;;;;;;;1.15;0.40;;;;;;;;;;4191155;28;20530;-43
2021/12/14 11:26:35;;;;;;;0.77;0.50;;;;;;;;;;4187804;28;20052;-44
2021/12/14 11:28:38;;;;;;;1.20;0.60;;;;;;;;;;4192152;28;20109;-43
2021/12/14 11:30:47;;;;;;;3.78;0.50;;;;;;;;;;4190703;28;20362;-43
2021/12/14 11:33:01;;;;;;;1.55;0.40;;;;;;;;;;4183762;28;20078;-44
2021/12/14 11:35:13;;;;;;;0.45;0.30;;;;;;;;;;4187781;28;20659;-43
2021/12/14 11:37:22;;;;;;;0.47;0.40;;;;;;;;;;4182733;28;20052;-43
2021/12/14 11:39:27;;;;;;;1.45;0.30;;;;;;;;;;4181353;28;20048;-44
2021/12/14 11:41:39;;;;;;;1.35;0.40;;;;;;;;;;4186098;28;20083;-44
2021/12/14 11:43:46;;;;;;;0.90;0.45;;;;;;;;;;4187687;28;20168;-43
2021/12/14 11:45:48;;;;;;;0.88;0.40;;;;;;;;;;4184519;28;20109;-43
2021/12/14 11:47:51;;;;;;;0.30;0.20;;;;;;;;;;4187515;28;20078;-44
2021/12/14 11:49:54;;;;;;;1.20;0.40;;;;;;;;;;4187479;28;20093;-42
2021/12/14 11:51:55;;;;;;;0.70;0.40;;;;;;;;;;4187001;28;20094;-44
2021/12/14 11:53:57;;;;;;;1.23;0.30;;;;;;;;;;4185215;28;20048;-42
2021/12/14 11:56:03;;;;;;;1.20;0.30;;;;;;;;;;4183607;28;20481;-42
2021/12/14 11:58:10;;;;;;;0.70;0.50;;;;;;;;;;4184331;28;20460;-42
2021/12/14 12:00:16;;;;;;;0.88;0.30;;;;;;;;;;4185922;28;20048;-42
2021/12/14 12:02:18;;;;;;;1.58;0.30;;;;;;;;;;4182048;28;20045;-42
2021/12/14 12:04:20;;;;;;;1.30;0.70;;;;;;;;;;4186607;28;20060;-43
2021/12/14 12:11:06;;;;;;;0.52;0.40;;;;;;;;;;4183927;28;20121;-42
2021/12/14 12:13:07;;;;;;;2.55;0.52;;;;;;;;;;4189588;28;20052;-41
2021/12/14 12:15:14;;;;;;;2.97;0.40;;;;;;;;;;4186440;28;20053;-42
2021/12/14 12:17:21;;;;;;;1.58;0.50;;;;;;;;;;4193630;28;20052;-44
2021/12/14 12:19:24;;;;;;;1.00;0.57;;;;;;;;;;4188517;28;20063;-43
2021/12/14 12:21:26;;;;;;;3.95;0.52;;;;;;;;;;4189682;28;20133;-43
2021/12/14 12:23:29;;;;;;;1.70;0.60;;;;;;;;;;4187168;28;20053;-43
2021/12/14 12:25:32;;;;;;;4.53;0.40;;;;;;;;;;4189889;28;20068;-42
2021/12/14 12:27:40;;;;;;;1.60;0.52;;;;;;;;;;4186621;28;20049;-43
2021/12/14 12:29:41;;;;;;;0.80;0.40;;;;;;;;;;4188267;28;20094;-44
2021/12/14 12:31:47;;;;;;;3.20;0.60;;;;;;;;;;4182116;28;20102;-44
2021/12/14 12:33:52;;;;;;;1.85;0.40;;;;;;;;;;4183322;28;20098;-41
2021/12/14 12:36:16;;;;;;;2.17;0.68;;;;;;;;;;4181574;28;20495;-42
2021/12/14 12:38:17;;;;;;;0.93;0.50;;;;;;;;;;4168441;28;20106;-43
2021/12/14 12:40:30;;;;;;;2.20;0.50;;;;;;;;;;4188358;28;20059;-44
2021/12/14 12:42:31;;;;;;;1.70;0.40;;;;;;;;;;4186241;28;20098;-42
2021/12/14 12:44:34;;;;;;;2.95;0.68;;;;;;;;;;4189540;28;20167;-40
2021/12/14 12:46:35;;;;;;;0.90;0.50;;;;;;;;;;4174785;28;20114;-43
2021/12/14 12:48:38;;;;;;;2.25;0.38;;;;;;;;;;4177982;28;20229;-44
2021/12/14 12:50:39;;;;;;;0.82;0.50;;;;;;;;;;4180192;28;20804;-44
2021/12/14 12:52:41;;;;;;;0.70;0.47;;;;;;;;;;4181857;28;20056;-43
2021/12/14 12:54:48;;;;;;;1.40;0.68;;;;;;;;;;4182306;28;20048;-43
2021/12/14 12:57:11;;;;;;;2.33;0.68;;;;;;;;;;4180158;28;20068;-43
2021/12/14 12:59:12;;;;;;;1.13;0.40;;;;;;;;;;4177086;28;20056;-43
2021/12/14 13:01:17;;;;;;;1.30;0.60;;;;;;;;;;4180028;28;20041;-43